N24X KORL-KTYS
Flight info
| Callsign | N24X |
|---|---|
| Flight time | N/A |
| Altitude | 41000 |
| Route | TOLLZ WORMS GUANO MMKAY/N0414F430 |
| Aircraft | PC24/M-SBDGIRWY/LB2 |
Departure
| Time | 2026-05-05 01:58 |
|---|---|
| Airport | Orlando Executive Airport (KORL) |
Arrival
| Time | N/A |
|---|---|
| Airport | McGhee Tyson Airport (KTYS) |
| Time | Latitude | Longitude | Altitude | Speed | Heading |
|---|---|---|---|---|---|
| 2026-05-05 01:38 | 28.54664 | -81.34248 | 107 ft | 0 kts | 181° |
| 2026-05-05 01:51 | 28.54649 | -81.34247 | 109 ft | 8 kts | 169° |
| 2026-05-05 01:52 | 28.54640 | -81.34160 | 111 ft | 21 kts | 95° |
| 2026-05-05 01:52 | 28.54620 | -81.33949 | 108 ft | 21 kts | 96° |
| 2026-05-05 01:52 | 28.54573 | -81.33869 | 108 ft | 0 kts | 133° |
| 2026-05-05 01:52 | 28.54526 | -81.33811 | 108 ft | 19 kts | 137° |
| 2026-05-05 01:53 | 28.54429 | -81.33864 | 108 ft | 16 kts | 220° |
| 2026-05-05 01:53 | 28.54371 | -81.33917 | 107 ft | 0 kts | 219° |
| 2026-05-05 01:56 | 28.54367 | -81.33920 | 107 ft | 6 kts | 211° |
| 2026-05-05 01:57 | 28.54298 | -81.33869 | 105 ft | 16 kts | 82° |
| 2026-05-05 01:57 | 28.54363 | -81.33684 | 107 ft | 54 kts | 66° |
| 2026-05-05 01:57 | 28.54629 | -81.33025 | 117 ft | 129 kts | 67° |
| 2026-05-05 01:57 | 28.55050 | -81.31899 | 418 ft | 172 kts | 68° |
| 2026-05-05 01:58 | 28.55672 | -81.30555 | 1052 ft | 211 kts | 56° |
| 2026-05-05 01:58 | 28.56715 | -81.29139 | 1457 ft | 257 kts | 51° |
| 2026-05-05 01:58 | 28.57991 | -81.27437 | 1541 ft | 301 kts | 52° |
| 2026-05-05 01:58 | 28.59234 | -81.25698 | 1478 ft | 252 kts | 54° |
| 2026-05-05 01:59 | 28.59909 | -81.24741 | 1508 ft | 223 kts | 54° |
| 2026-05-05 01:59 | 28.61165 | -81.22948 | 1502 ft | 213 kts | 56° |
| 2026-05-05 01:59 | 28.61664 | -81.21981 | 1507 ft | 207 kts | 66° |
| 2026-05-05 01:59 | 28.62269 | -81.20575 | 1894 ft | 201 kts | 65° |
| 2026-05-05 02:00 | 28.62924 | -81.19134 | 2717 ft | 217 kts | 65° |
| 2026-05-05 02:00 | 28.63654 | -81.17495 | 3001 ft | 243 kts | 64° |
| 2026-05-05 02:00 | 28.64656 | -81.15917 | 3000 ft | 253 kts | 39° |
| 2026-05-05 02:00 | 28.66314 | -81.15200 | 3007 ft | 260 kts | 11° |
| 2026-05-05 02:01 | 28.68127 | -81.15420 | 3003 ft | 268 kts | 342° |
| 2026-05-05 02:01 | 28.69767 | -81.16444 | 3128 ft | 269 kts | 329° |
| 2026-05-05 02:01 | 28.71250 | -81.17537 | 4586 ft | 242 kts | 327° |
| 2026-05-05 02:01 | 28.72614 | -81.18477 | 6202 ft | 216 kts | 327° |
| 2026-05-05 02:02 | 28.73913 | -81.19351 | 7197 ft | 220 kts | 327° |
| 2026-05-05 02:02 | 28.75232 | -81.20246 | 8102 ft | 221 kts | 327° |
| 2026-05-05 02:02 | 28.76561 | -81.21152 | 9010 ft | 224 kts | 327° |
| 2026-05-05 02:02 | 28.77905 | -81.22069 | 9904 ft | 226 kts | 327° |
| 2026-05-05 02:03 | 28.79270 | -81.22997 | 10696 ft | 229 kts | 327° |
| 2026-05-05 02:03 | 28.80647 | -81.23936 | 11481 ft | 233 kts | 327° |
| 2026-05-05 02:03 | 28.82030 | -81.24878 | 12259 ft | 236 kts | 327° |
| 2026-05-05 02:03 | 28.83451 | -81.25848 | 13058 ft | 239 kts | 327° |
| 2026-05-05 02:04 | 28.84892 | -81.26830 | 13860 ft | 243 kts | 327° |
| 2026-05-05 02:04 | 28.86353 | -81.27826 | 14588 ft | 245 kts | 326° |
| 2026-05-05 02:04 | 28.87821 | -81.28827 | 15349 ft | 246 kts | 326° |
| 2026-05-05 02:04 | 28.89292 | -81.29831 | 16103 ft | 247 kts | 325° |
| 2026-05-05 02:05 | 28.90770 | -81.30841 | 16866 ft | 248 kts | 324° |
| 2026-05-05 02:05 | 28.92253 | -81.31854 | 17626 ft | 250 kts | 324° |
| 2026-05-05 02:05 | 28.93732 | -81.32864 | 18367 ft | 251 kts | 323° |
| 2026-05-05 02:05 | 28.95237 | -81.33893 | 19013 ft | 252 kts | 323° |
| 2026-05-05 02:06 | 28.96747 | -81.34925 | 19663 ft | 253 kts | 323° |
| 2026-05-05 02:06 | 28.97323 | -81.35319 | 19910 ft | 253 kts | 323° |